Wetterdaten: Woche 26.09.11 - 02.10.11 (KW39)
Datum Zeit Temperatur Luftfeuchte Luftdruck Niederschlag Windrichtung Sonnenschein Solar Wind
26.09.2011 00:00 11,7 C 97 % 1021,2 hPa 0,0 l/m N 0,00 h 0 W/m 0,3 km/h (0 Bft)
26.09.2011 01:00 11,0 C 97 % 1021,4 hPa 0,0 l/m N 0,00 h 0 W/m 0,1 km/h (0 Bft)
26.09.2011 02:00 10,1 C 97 % 1021,6 hPa 0,0 l/m N 0,00 h 0 W/m 0,0 km/h (0 Bft)
26.09.2011 03:00 9,4 C 98 % 1021,6 hPa 0,0 l/m N 0,00 h 0 W/m 0,0 km/h (0 Bft)
26.09.2011 04:00 9,2 C 98 % 1021,7 hPa 0,0 l/m N 0,00 h 0 W/m 0,0 km/h (0 Bft)
26.09.2011 05:00 8,8 C 98 % 1022,0 hPa 0,0 l/m N 0,00 h 0 W/m 0,0 km/h (0 Bft)
26.09.2011 06:00 8,4 C 98 % 1022,4 hPa 0,2 l/m N 0,00 h 0 W/m 0,0 km/h (0 Bft)
26.09.2011 07:00 8,2 C 98 % 1022,9 hPa 0,0 l/m N 0,00 h 15 W/m 0,0 km/h (0 Bft)
26.09.2011 08:00 9,2 C 98 % 1023,4 hPa 0,0 l/m N 0,00 h 45 W/m 0,1 km/h (0 Bft)
26.09.2011 09:00 12,4 C 94 % 1023,6 hPa 0,0 l/m N 0,08 h 90 W/m 0,4 km/h (0 Bft)
26.09.2011 10:00 15,3 C 88 % 1023,8 hPa 0,0 l/m N 0,25 h 166 W/m 0,0 km/h (0 Bft)
26.09.2011 11:00 17,6 C 82 % 1023,8 hPa 0,0 l/m N 0,00 h 130 W/m 0,4 km/h (0 Bft)
26.09.2011 12:00 19,6 C 73 % 1023,6 hPa 0,0 l/m N 0,17 h 248 W/m 0,5 km/h (0 Bft)
26.09.2011 13:00 21,2 C 65 % 1023,4 hPa 0,0 l/m SO 1,00 h 660 W/m 3,2 km/h (1 Bft)
26.09.2011 14:00 22,4 C 61 % 1023,0 hPa 0,0 l/m O-SO 1,00 h 609 W/m 9,7 km/h (2 Bft)
26.09.2011 15:00 22,8 C 59 % 1022,8 hPa 0,0 l/m O 0,58 h 332 W/m 8,5 km/h (2 Bft)
26.09.2011 16:00 22,8 C 55 % 1022,8 hPa 0,0 l/m O-SO 0,42 h 207 W/m 8,9 km/h (2 Bft)
26.09.2011 17:00 22,3 C 58 % 1022,9 hPa 0,0 l/m O-SO 0,00 h 61 W/m 6,8 km/h (2 Bft)
26.09.2011 18:00 20,3 C 70 % 1023,0 hPa 0,0 l/m O-SO 0,00 h 31 W/m 1,2 km/h (1 Bft)
26.09.2011 19:00 17,0 C 86 % 1023,6 hPa 0,0 l/m N 0,08 h 6 W/m 0,9 km/h (0 Bft)
26.09.2011 20:00 15,6 C 90 % 1024,1 hPa 0,0 l/m N 0,00 h 0 W/m 1,5 km/h (1 Bft)
26.09.2011 21:00 14,3 C 93 % 1024,4 hPa 0,0 l/m N 0,00 h 0 W/m 0,1 km/h (0 Bft)
26.09.2011 22:00 13,5 C 95 % 1025,0 hPa 0,0 l/m N 0,00 h 0 W/m 0,0 km/h (0 Bft)
26.09.2011 23:00 12,9 C 95 % 1025,3 hPa 0,0 l/m N 0,00 h 0 W/m 0,0 km/h (0 Bft)
27.09.2011 00:00 12,5 C 96 % 1025,4 hPa 0,0 l/m N 0,00 h 0 W/m 1,6 km/h (1 Bft)
27.09.2011 01:00 12,3 C 96 % 1025,4 hPa 0,0 l/m N 0,00 h 0 W/m 0,1 km/h (0 Bft)
27.09.2011 02:00 11,3 C 97 % 1025,4 hPa 0,0 l/m N 0,00 h 0 W/m 0,0 km/h (0 Bft)
27.09.2011 03:00 10,8 C 97 % 1025,4 hPa 0,0 l/m N 0,00 h 0 W/m 0,0 km/h (0 Bft)
27.09.2011 04:00 10,3 C 97 % 1025,6 hPa 0,0 l/m N 0,00 h 0 W/m 0,0 km/h (0 Bft)
27.09.2011 05:00 9,9 C 97 % 1025,9 hPa 0,0 l/m N 0,00 h 0 W/m 0,1 km/h (0 Bft)
27.09.2011 06:00 9,4 C 97 % 1026,1 hPa 0,0 l/m N 0,00 h 0 W/m 0,0 km/h (0 Bft)
27.09.2011 07:00 9,3 C 97 % 1026,3 hPa 0,0 l/m N 0,17 h 21 W/m 0,0 km/h (0 Bft)
27.09.2011 08:00 10,3 C 98 % 1026,6 hPa 0,0 l/m N 0,00 h 48 W/m 0,0 km/h (0 Bft)
27.09.2011 09:00 12,8 C 95 % 1027,1 hPa 0,0 l/m N 0,00 h 99 W/m 2,4 km/h (1 Bft)
27.09.2011 10:00 15,5 C 89 % 1027,4 hPa 0,0 l/m O-SO 0,17 h 177 W/m 3,7 km/h (1 Bft)
27.09.2011 11:00 18,1 C 78 % 1027,4 hPa 0,0 l/m O 0,00 h 164 W/m 7,6 km/h (2 Bft)
27.09.2011 12:00 20,3 C 70 % 1027,3 hPa 0,0 l/m O-NO 0,25 h 298 W/m 12,1 km/h (2 Bft)
27.09.2011 13:00 21,8 C 64 % 1027,0 hPa 0,0 l/m O-SO 1,00 h 638 W/m 12,6 km/h (3 Bft)
27.09.2011 14:00 22,7 C 57 % 1026,7 hPa 0,0 l/m O-SO 1,00 h 597 W/m 12,9 km/h (3 Bft)
27.09.2011 15:00 22,8 C 55 % 1026,6 hPa 0,0 l/m O-NO 0,58 h 331 W/m 12,6 km/h (3 Bft)
27.09.2011 16:00 22,6 C 52 % 1026,3 hPa 0,0 l/m NO 0,33 h 183 W/m 13,2 km/h (3 Bft)
27.09.2011 17:00 21,9 C 53 % 1026,1 hPa 0,0 l/m O-NO 0,00 h 54 W/m 11,6 km/h (2 Bft)
27.09.2011 18:00 20,1 C 62 % 1026,3 hPa 0,0 l/m NO 0,00 h 26 W/m 5,4 km/h (1 Bft)
27.09.2011 19:00 16,2 C 81 % 1026,8 hPa 0,0 l/m N 0,00 h 7 W/m 2,4 km/h (1 Bft)
27.09.2011 20:00 15,0 C 85 % 1027,2 hPa 0,0 l/m N 0,00 h 0 W/m 1,6 km/h (1 Bft)
27.09.2011 21:00 14,3 C 88 % 1027,5 hPa 0,0 l/m NO 0,00 h 0 W/m 3,2 km/h (1 Bft)
27.09.2011 22:00 14,1 C 89 % 1027,7 hPa 0,0 l/m NO 0,00 h 0 W/m 2,8 km/h (1 Bft)
27.09.2011 23:00 13,3 C 92 % 1027,8 hPa 0,0 l/m NO 0,00 h 0 W/m 3,2 km/h (1 Bft)
28.09.2011 00:00 13,2 C 92 % 1027,7 hPa 0,0 l/m N-NO 0,00 h 0 W/m 3,3 km/h (1 Bft)
28.09.2011 01:00 12,7 C 94 % 1027,6 hPa 0,0 l/m N-NO 0,00 h 0 W/m 3,5 km/h (1 Bft)
28.09.2011 02:00 12,2 C 95 % 1027,6 hPa 0,0 l/m N-NO 0,00 h 0 W/m 3,3 km/h (1 Bft)
28.09.2011 03:00 11,7 C 95 % 1027,2 hPa 0,0 l/m N 0,00 h 0 W/m 2,4 km/h (1 Bft)
28.09.2011 04:00 11,3 C 96 % 1027,0 hPa 0,0 l/m N-NO 0,00 h 0 W/m 4,1 km/h (1 Bft)
28.09.2011 05:00 11,1 C 96 % 1026,8 hPa 0,0 l/m N 0,00 h 0 W/m 7,3 km/h (2 Bft)
28.09.2011 06:00 11,0 C 96 % 1026,7 hPa 0,0 l/m N 0,00 h 0 W/m 6,0 km/h (2 Bft)
28.09.2011 07:00 10,7 C 96 % 1026,7 hPa 0,2 l/m N 0,00 h 14 W/m 2,9 km/h (1 Bft)
28.09.2011 08:00 11,4 C 96 % 1026,9 hPa 0,0 l/m N 0,00 h 46 W/m 5,2 km/h (1 Bft)
28.09.2011 09:00 13,5 C 93 % 1027,0 hPa 0,0 l/m N-NO 0,00 h 90 W/m 9,3 km/h (2 Bft)
28.09.2011 10:00 15,9 C 86 % 1027,0 hPa 0,0 l/m NO 0,00 h 127 W/m 11,0 km/h (2 Bft)
28.09.2011 11:00 18,2 C 77 % 1026,9 hPa 0,0 l/m NO 0,00 h 133 W/m 13,3 km/h (3 Bft)
28.09.2011 12:00 20,6 C 65 % 1026,4 hPa 0,0 l/m NO 0,08 h 157 W/m 20,8 km/h (4 Bft)
28.09.2011 13:00 21,8 C 57 % 1026,0 hPa 0,0 l/m O-NO 1,00 h 664 W/m 25,6 km/h (4 Bft)
28.09.2011 14:00 22,5 C 53 % 1025,2 hPa 0,0 l/m O 1,00 h 619 W/m 25,1 km/h (4 Bft)
28.09.2011 15:00 22,8 C 52 % 1024,8 hPa 0,0 l/m O-NO 0,58 h 320 W/m 23,7 km/h (4 Bft)
28.09.2011 16:00 22,7 C 51 % 1024,5 hPa 0,0 l/m O-NO 0,42 h 183 W/m 21,4 km/h (4 Bft)
28.09.2011 17:00 21,8 C 55 % 1024,5 hPa 0,0 l/m O 0,00 h 50 W/m 20,1 km/h (4 Bft)
28.09.2011 18:00 20,5 C 60 % 1024,5 hPa 0,0 l/m O-NO 0,00 h 28 W/m 12,0 km/h (2 Bft)
28.09.2011 19:00 17,9 C 71 % 1024,9 hPa 0,0 l/m NO 0,00 h 6 W/m 5,9 km/h (2 Bft)
28.09.2011 20:00 16,8 C 78 % 1025,4 hPa 0,0 l/m NO 0,00 h 0 W/m 8,0 km/h (2 Bft)
28.09.2011 21:00 16,4 C 81 % 1025,6 hPa 0,0 l/m N-NO 0,00 h 0 W/m 7,8 km/h (2 Bft)
28.09.2011 22:00 15,0 C 87 % 1025,7 hPa 0,0 l/m N-NO 0,00 h 0 W/m 6,0 km/h (2 Bft)
28.09.2011 23:00 14,8 C 89 % 1025,7 hPa 0,0 l/m NO 0,00 h 0 W/m 7,8 km/h (2 Bft)
29.09.2011 00:00 14,6 C 90 % 1025,5 hPa 0,0 l/m NO 0,00 h 0 W/m 7,2 km/h (2 Bft)
29.09.2011 01:00 13,4 C 93 % 1025,5 hPa 0,0 l/m N-NO 0,00 h 0 W/m 6,4 km/h (2 Bft)
29.09.2011 02:00 12,7 C 96 % 1025,5 hPa 0,0 l/m NW 0,00 h 0 W/m 4,1 km/h (1 Bft)
29.09.2011 03:00 12,1 C 97 % 1025,4 hPa 0,0 l/m NW 0,00 h 0 W/m 3,2 km/h (1 Bft)
29.09.2011 04:00 12,2 C 97 % 1025,2 hPa 0,0 l/m N-NW 0,00 h 0 W/m 5,6 km/h (1 Bft)
29.09.2011 05:00 12,9 C 98 % 1025,0 hPa 0,0 l/m O-NO 0,00 h 0 W/m 8,0 km/h (2 Bft)
29.09.2011 06:00 13,1 C 97 % 1025,1 hPa 0,0 l/m O-NO 0,00 h 0 W/m 9,5 km/h (2 Bft)
29.09.2011 07:00 12,9 C 97 % 1025,3 hPa 0,0 l/m O-NO 0,00 h 10 W/m 7,7 km/h (2 Bft)
29.09.2011 08:00 13,0 C 97 % 1025,5 hPa 0,0 l/m NO 0,00 h 26 W/m 5,5 km/h (1 Bft)
29.09.2011 09:00 13,1 C 97 % 1025,9 hPa 0,0 l/m O-NO 0,00 h 51 W/m 5,3 km/h (1 Bft)
29.09.2011 10:00 13,5 C 96 % 1026,3 hPa 0,0 l/m O 0,00 h 92 W/m 7,6 km/h (2 Bft)
29.09.2011 11:00 13,7 C 94 % 1026,6 hPa 0,0 l/m O-SO 0,00 h 132 W/m 10,8 km/h (2 Bft)
29.09.2011 12:00 14,3 C 91 % 1026,6 hPa 0,0 l/m O-NO 0,00 h 161 W/m 10,2 km/h (2 Bft)
29.09.2011 13:00 14,9 C 90 % 1026,2 hPa 0,0 l/m NO 0,00 h 185 W/m 8,2 km/h (2 Bft)
29.09.2011 14:00 16,0 C 86 % 1025,9 hPa 0,0 l/m O-NO 0,00 h 250 W/m 10,2 km/h (2 Bft)
29.09.2011 15:00 16,8 C 83 % 1025,7 hPa 0,0 l/m NO 0,33 h 269 W/m 12,2 km/h (2 Bft)
29.09.2011 16:00 17,1 C 81 % 1025,4 hPa 0,0 l/m NO 0,25 h 190 W/m 11,8 km/h (2 Bft)
29.09.2011 17:00 17,7 C 79 % 1025,2 hPa 0,0 l/m O 0,00 h 89 W/m 12,2 km/h (2 Bft)
29.09.2011 18:00 16,9 C 80 % 1025,1 hPa 0,0 l/m O-NO 0,17 h 38 W/m 7,6 km/h (2 Bft)
29.09.2011 19:00 15,2 C 86 % 1025,3 hPa 0,0 l/m NO 0,00 h 6 W/m 4,3 km/h (1 Bft)
29.09.2011 20:00 14,0 C 90 % 1025,5 hPa 0,0 l/m N-NO 0,00 h 0 W/m 5,6 km/h (1 Bft)
29.09.2011 21:00 13,3 C 89 % 1025,6 hPa 0,0 l/m N-NO 0,00 h 0 W/m 6,5 km/h (2 Bft)
29.09.2011 22:00 12,8 C 86 % 1025,7 hPa 0,0 l/m N-NO 0,00 h 0 W/m 6,0 km/h (2 Bft)
29.09.2011 23:00 12,3 C 85 % 1025,6 hPa 0,0 l/m N-NW 0,00 h 0 W/m 5,2 km/h (1 Bft)
30.09.2011 00:00 11,4 C 87 % 1025,5 hPa 0,0 l/m N 0,00 h 0 W/m 4,0 km/h (1 Bft)
30.09.2011 01:00 10,6 C 88 % 1025,3 hPa 0,0 l/m N 0,00 h 0 W/m 1,1 km/h (0 Bft)
30.09.2011 02:00 9,7 C 90 % 1025,3 hPa 0,0 l/m N 0,00 h 0 W/m 1,6 km/h (1 Bft)
30.09.2011 03:00 9,1 C 92 % 1025,3 hPa 0,0 l/m N 0,00 h 0 W/m 1,7 km/h (1 Bft)
30.09.2011 04:00 9,2 C 94 % 1025,3 hPa 0,0 l/m N 0,00 h 0 W/m 1,1 km/h (0 Bft)
30.09.2011 05:00 9,8 C 95 % 1025,3 hPa 0,0 l/m N 0,00 h 0 W/m 1,9 km/h (1 Bft)
30.09.2011 06:00 10,1 C 92 % 1025,4 hPa 0,0 l/m N 0,00 h 0 W/m 2,3 km/h (1 Bft)
30.09.2011 07:00 10,1 C 92 % 1025,5 hPa 0,0 l/m N 0,00 h 7 W/m 4,7 km/h (1 Bft)
30.09.2011 08:00 10,2 C 92 % 1025,8 hPa 0,0 l/m N 0,00 h 33 W/m 2,0 km/h (1 Bft)
30.09.2011 09:00 10,7 C 93 % 1026,1 hPa 0,0 l/m N 0,00 h 64 W/m 1,9 km/h (1 Bft)
30.09.2011 10:00 11,4 C 94 % 1026,5 hPa 0,0 l/m N 0,00 h 91 W/m 2,5 km/h (1 Bft)
30.09.2011 11:00 12,0 C 95 % 1026,6 hPa 0,0 l/m N 0,00 h 146 W/m 3,2 km/h (1 Bft)
30.09.2011 12:00 13,3 C 93 % 1026,3 hPa 0,0 l/m N 0,00 h 202 W/m 3,7 km/h (1 Bft)
30.09.2011 13:00 14,2 C 91 % 1026,1 hPa 0,0 l/m N-NO 0,00 h 164 W/m 2,8 km/h (1 Bft)
30.09.2011 14:00 15,2 C 88 % 1025,6 hPa 0,0 l/m N-NW 0,50 h 382 W/m 5,3 km/h (1 Bft)
30.09.2011 15:00 17,1 C 83 % 1025,0 hPa 0,0 l/m N-NO 0,58 h 352 W/m 8,6 km/h (2 Bft)
30.09.2011 16:00 18,0 C 81 % 1024,7 hPa 0,0 l/m N-NO 0,08 h 141 W/m 7,2 km/h (2 Bft)
30.09.2011 17:00 18,0 C 81 % 1024,5 hPa 0,0 l/m NO 0,00 h 68 W/m 6,0 km/h (2 Bft)
30.09.2011 18:00 17,1 C 85 % 1024,7 hPa 0,0 l/m NO 0,08 h 31 W/m 4,8 km/h (1 Bft)
30.09.2011 19:00 15,8 C 87 % 1024,9 hPa 0,0 l/m N 0,00 h 5 W/m 4,7 km/h (1 Bft)
30.09.2011 20:00 14,4 C 90 % 1025,0 hPa 0,0 l/m N 0,00 h 0 W/m 3,5 km/h (1 Bft)
30.09.2011 21:00 13,3 C 91 % 1025,1 hPa 0,0 l/m N 0,00 h 0 W/m 1,7 km/h (1 Bft)
30.09.2011 22:00 12,3 C 91 % 1025,2 hPa 0,0 l/m N 0,00 h 0 W/m 0,0 km/h (0 Bft)
30.09.2011 23:00 11,3 C 92 % 1025,4 hPa 0,0 l/m N 0,00 h 0 W/m 0,0 km/h (0 Bft)
01.10.2011 00:00 11,0 C 94 % 1025,3 hPa 0,0 l/m N 0,00 h 0 W/m 0,0 km/h (0 Bft)
01.10.2011 01:00 10,5 C 94 % 1025,3 hPa 0,0 l/m N 0,00 h 0 W/m 0,0 km/h (0 Bft)
01.10.2011 02:00 9,8 C 95 % 1025,2 hPa 0,0 l/m N 0,00 h 0 W/m 0,1 km/h (0 Bft)
01.10.2011 03:00 9,6 C 96 % 1025,1 hPa 0,0 l/m N 0,00 h 0 W/m 0,1 km/h (0 Bft)
01.10.2011 04:00 9,8 C 97 % 1025,1 hPa 0,0 l/m N 0,00 h 0 W/m 0,0 km/h (0 Bft)
01.10.2011 05:00 10,0 C 98 % 1024,9 hPa 0,2 l/m N 0,00 h 0 W/m 0,7 km/h (0 Bft)
01.10.2011 06:00 10,1 C 98 % 1025,0 hPa 0,0 l/m N 0,00 h 0 W/m 0,9 km/h (0 Bft)
01.10.2011 07:00 10,2 C 98 % 1025,1 hPa 0,0 l/m N 0,00 h 10 W/m 1,2 km/h (1 Bft)
01.10.2011 08:00 10,5 C 98 % 1025,2 hPa 0,0 l/m N 0,00 h 37 W/m 1,2 km/h (1 Bft)
01.10.2011 09:00 11,3 C 99 % 1025,6 hPa 0,0 l/m N 0,00 h 75 W/m 0,3 km/h (0 Bft)
01.10.2011 10:00 12,3 C 99 % 1025,9 hPa 0,0 l/m N 0,00 h 113 W/m 2,4 km/h (1 Bft)
01.10.2011 11:00 12,9 C 98 % 1025,9 hPa 0,0 l/m W-SW 0,00 h 160 W/m 6,4 km/h (2 Bft)
01.10.2011 12:00 13,8 C 97 % 1025,8 hPa 0,0 l/m W-SW 0,00 h 192 W/m 2,4 km/h (1 Bft)
01.10.2011 13:00 14,8 C 94 % 1025,4 hPa 0,0 l/m W-SW 0,00 h 239 W/m 2,9 km/h (1 Bft)
01.10.2011 14:00 16,2 C 89 % 1025,1 hPa 0,2 l/m W-SW 0,42 h 280 W/m 3,9 km/h (1 Bft)
01.10.2011 15:00 17,9 C 84 % 1024,7 hPa 0,0 l/m S 1,00 h 505 W/m 6,8 km/h (2 Bft)
01.10.2011 16:00 18,6 C 82 % 1024,5 hPa 0,0 l/m S 1,00 h 372 W/m 4,4 km/h (1 Bft)
01.10.2011 17:00 18,6 C 82 % 1024,6 hPa 0,0 l/m S 1,00 h 209 W/m 3,3 km/h (1 Bft)
01.10.2011 18:00 17,6 C 87 % 1024,8 hPa 0,0 l/m N 0,42 h 40 W/m 0,3 km/h (0 Bft)
01.10.2011 19:00 16,1 C 88 % 1025,0 hPa 0,0 l/m N 0,00 h 5 W/m 0,3 km/h (0 Bft)
01.10.2011 20:00 14,4 C 90 % 1025,2 hPa 0,0 l/m N 0,00 h 0 W/m 0,0 km/h (0 Bft)
01.10.2011 21:00 13,1 C 91 % 1025,3 hPa 0,0 l/m N 0,00 h 0 W/m 0,0 km/h (0 Bft)
01.10.2011 22:00 12,5 C 93 % 1025,5 hPa 0,0 l/m N 0,00 h 0 W/m 0,0 km/h (0 Bft)
01.10.2011 23:00 12,3 C 95 % 1025,6 hPa 0,0 l/m N 0,00 h 0 W/m 0,0 km/h (0 Bft)
02.10.2011 00:00 11,8 C 96 % 1025,6 hPa 0,0 l/m N 0,00 h 0 W/m 0,0 km/h (0 Bft)
02.10.2011 01:00 11,1 C 96 % 1025,4 hPa 0,0 l/m N 0,00 h 0 W/m 0,0 km/h (0 Bft)
02.10.2011 02:00 10,8 C 97 % 1025,3 hPa 0,0 l/m N 0,00 h 0 W/m 0,0 km/h (0 Bft)
02.10.2011 03:00 10,7 C 97 % 1025,0 hPa 0,0 l/m N 0,00 h 0 W/m 0,0 km/h (0 Bft)
02.10.2011 04:00 10,6 C 98 % 1024,9 hPa 0,0 l/m N 0,00 h 0 W/m 0,9 km/h (0 Bft)
02.10.2011 05:00 10,7 C 98 % 1025,0 hPa 0,0 l/m N 0,00 h 0 W/m 0,0 km/h (0 Bft)
02.10.2011 06:00 10,9 C 98 % 1025,0 hPa 0,2 l/m N 0,00 h 0 W/m 1,5 km/h (1 Bft)
02.10.2011 07:00 10,8 C 98 % 1025,1 hPa 0,0 l/m S-SO 0,00 h 9 W/m 2,0 km/h (1 Bft)
02.10.2011 08:00 10,5 C 98 % 1025,3 hPa 0,0 l/m N 0,00 h 36 W/m 1,5 km/h (1 Bft)
02.10.2011 09:00 10,7 C 99 % 1025,5 hPa 0,0 l/m S-SO 0,00 h 78 W/m 2,3 km/h (1 Bft)
02.10.2011 10:00 11,5 C 99 % 1025,5 hPa 0,0 l/m S-SO 0,00 h 116 W/m 3,3 km/h (1 Bft)
02.10.2011 11:00 12,7 C 98 % 1025,6 hPa 0,0 l/m S-SO 0,00 h 171 W/m 4,3 km/h (1 Bft)
02.10.2011 12:00 14,4 C 94 % 1025,3 hPa 0,0 l/m S-SO 0,58 h 466 W/m 4,8 km/h (1 Bft)
02.10.2011 13:00 17,3 C 84 % 1024,5 hPa 0,0 l/m S-SO 1,00 h 621 W/m 4,5 km/h (1 Bft)
02.10.2011 14:00 20,0 C 70 % 1023,7 hPa 0,0 l/m S-SO 1,00 h 590 W/m 4,4 km/h (1 Bft)
02.10.2011 15:00 21,2 C 68 % 1023,1 hPa 0,0 l/m S-SO 1,00 h 495 W/m 5,2 km/h (1 Bft)
02.10.2011 16:00 21,4 C 66 % 1022,9 hPa 0,0 l/m O-SO 1,00 h 377 W/m 5,2 km/h (1 Bft)
02.10.2011 17:00 20,9 C 69 % 1022,5 hPa 0,0 l/m O-SO 1,00 h 202 W/m 4,0 km/h (1 Bft)
02.10.2011 18:00 18,3 C 85 % 1022,4 hPa 0,0 l/m N 0,25 h 34 W/m 0,8 km/h (0 Bft)
02.10.2011 19:00 16,8 C 85 % 1022,8 hPa 0,0 l/m N 0,00 h 5 W/m 0,5 km/h (0 Bft)
02.10.2011 20:00 15,1 C 87 % 1023,2 hPa 0,0 l/m N 0,00 h 0 W/m 0,0 km/h (0 Bft)
02.10.2011 21:00 13,7 C 89 % 1023,3 hPa 0,0 l/m N 0,00 h 0 W/m 0,0 km/h (0 Bft)
02.10.2011 22:00 12,7 C 91 % 1023,5 hPa 0,0 l/m N 0,00 h 0 W/m 0,0 km/h (0 Bft)
02.10.2011 23:00 12,1 C 93 % 1023,7 hPa 0,0 l/m N 0,00 h 0 W/m 0,0 km/h (0 Bft)
Min-Datum _ 26.09.11 27.09.11 26.09.11 - - - - 26.09.11
_ Min-Zeit 07:10 16:45 00:00 - - - - 00:10
Minimum _ 8,1 C 50 % 1021,1 hPa - - - - 0,0 km/h (0 Bft)
Max-Datum _ 26.09.11 01.10.11 27.09.11 26.09.11 - 26.09.11 28.09.11 28.09.11
_ Max-Zeit 15:10 09:15 23:25 06:00 - 09:40 13:10 13:00
Maximum _ 23,2 C 99 % 1027,9 hPa 0,2 l/m - 0,08 h 670 W/m 35,4 km/h
O (5 Bft)
Durchschnitt _ 14,3 C 87 % 1025,2 hPa #1,0 l/m O-NO #21:50 h 179 W/m 4,5 km/h (1 Bft)